createdAt,value
2023-04-02T00:00:25.183Z,78.8809
2023-04-02T00:01:33.241Z,78.6569
2023-04-02T00:02:41.373Z,78.2996
2023-04-02T00:03:49.429Z,78.2554
2023-04-02T00:04:57.433Z,78.4571
2023-04-02T00:06:05.495Z,78.6141
2023-04-02T00:07:13.537Z,78.7421
2023-04-02T00:08:21.556Z,78.9514
2023-04-02T00:09:29.639Z,79.1005
2023-04-02T00:10:37.689Z,79.2819
2023-04-02T00:11:45.739Z,79.3045
2023-04-02T00:12:53.809Z,79.0474
2023-04-02T00:14:01.850Z,78.8374
2023-04-02T00:15:09.934Z,79.0860
2023-04-02T00:16:18.097Z,79.4547
2023-04-02T00:17:26.135Z,79.2678
2023-04-02T00:18:34.173Z,79.2539
2023-04-02T00:19:42.322Z,79.2240
2023-04-02T00:20:50.352Z,79.3027
2023-04-02T00:21:58.478Z,79.3480
2023-04-02T00:23:06.452Z,79.0162
2023-04-02T00:24:14.526Z,78.6591
2023-04-02T00:25:22.638Z,78.3836
2023-04-02T00:26:30.598Z,78.3409
2023-04-02T00:27:38.592Z,78.4016
2023-04-02T00:28:46.787Z,78.3085
2023-04-02T00:29:54.760Z,78.6731
2023-04-02T00:31:02.957Z,78.7556
2023-04-02T00:32:11.077Z,79.1833
2023-04-02T00:33:19.076Z,79.6043
2023-04-02T00:34:27.086Z,79.6827
2023-04-02T00:35:35.361Z,79.7822
2023-04-02T00:36:43.277Z,79.7628
2023-04-02T00:37:51.353Z,80.6705
2023-04-02T00:38:59.358Z,80.5675
2023-04-02T00:40:07.519Z,80.2300
2023-04-02T00:41:15.480Z,80.5436
2023-04-02T00:42:23.515Z,80.4324
2023-04-02T00:43:31.587Z,80.5469
2023-04-02T00:44:39.591Z,80.0888
2023-04-02T00:45:47.694Z,79.9665
2023-04-02T00:46:55.832Z,80.0404
2023-04-02T00:48:03.979Z,80.3293
2023-04-02T00:49:12.028Z,80.2405
2023-04-02T00:50:19.999Z,79.8826
2023-04-02T00:51:28.101Z,79.4427
2023-04-02T00:52:36.206Z,79.5733
2023-04-02T00:53:44.280Z,80.1066
2023-04-02T00:54:52.330Z,80.1919
2023-04-02T00:56:00.302Z,80.1004
2023-04-02T00:57:08.367Z,80.0611
2023-04-02T00:58:16.415Z,79.8616
2023-04-02T00:59:24.469Z,79.9690
2023-04-02T01:00:32.719Z,80.3586
2023-04-02T01:01:40.775Z,79.9889
2023-04-02T01:02:48.867Z,79.7057
2023-04-02T01:03:56.808Z,79.8842
2023-04-02T01:05:04.924Z,79.9786
2023-04-02T01:06:13.036Z,79.7650
2023-04-02T01:07:20.997Z,79.4381
2023-04-02T01:08:29.051Z,79.6657
2023-04-02T01:09:37.171Z,79.7270
2023-04-02T01:10:45.111Z,79.7197
2023-04-02T01:11:53.209Z,79.5976
2023-04-02T01:13:01.239Z,79.5725
2023-04-02T01:14:09.328Z,79.5748
2023-04-02T01:15:17.460Z,79.3504
2023-04-02T01:16:25.875Z,79.6901
2023-04-02T01:17:33.699Z,80.0476
2023-04-02T01:18:41.668Z,79.7876
2023-04-02T01:19:49.710Z,79.6970
2023-04-02T01:20:57.795Z,80.1882
2023-04-02T01:22:05.877Z,80.1360
2023-04-02T01:23:13.974Z,79.5913
2023-04-02T01:24:21.952Z,79.3107
2023-04-02T01:25:29.962Z,79.9698
2023-04-02T01:26:38.013Z,79.9757
2023-04-02T01:27:46.134Z,79.9855
2023-04-02T01:28:54.146Z,80.3884
2023-04-02T01:30:02.401Z,79.4947
2023-04-02T01:31:10.489Z,78.8648
2023-04-02T01:32:18.448Z,78.7332
2023-04-02T01:33:26.556Z,78.6552
2023-04-02T01:34:34.680Z,78.9279
2023-04-02T01:35:42.753Z,79.1706
2023-04-02T01:36:50.709Z,79.2064
2023-04-02T01:37:58.840Z,79.6572
2023-04-02T01:39:06.875Z,79.7224
2023-04-02T01:40:14.849Z,79.7198
2023-04-02T01:41:22.868Z,79.2439
2023-04-02T01:42:30.949Z,79.1453
2023-04-02T01:43:38.990Z,79.1570
2023-04-02T01:44:47.218Z,79.2480
2023-04-02T01:45:55.265Z,79.4763
2023-04-02T01:47:03.309Z,79.7769
2023-04-02T01:48:11.358Z,79.5887
2023-04-02T01:49:19.503Z,79.3006
2023-04-02T01:50:27.588Z,78.7715
2023-04-02T01:51:35.633Z,78.4163
2023-04-02T01:52:43.596Z,78.7018
2023-04-02T01:53:51.719Z,79.5153
2023-04-02T01:54:59.674Z,79.4499
2023-04-02T01:56:07.790Z,79.3436
2023-04-02T01:57:15.833Z,79.3981
2023-04-02T01:58:23.897Z,79.6108
2023-04-02T01:59:32.001Z,79.4744
2023-04-02T02:00:40.180Z,79.4014
2023-04-02T02:01:48.209Z,79.2450
2023-04-02T02:02:56.324Z,79.2580
2023-04-02T02:04:04.276Z,79.4235
2023-04-02T02:05:12.380Z,79.1619
2023-04-02T02:06:20.390Z,78.5650
2023-04-02T02:07:28.539Z,78.8140
2023-04-02T02:08:36.613Z,78.9627
2023-04-02T02:09:44.678Z,78.5970
2023-04-02T02:10:52.687Z,78.0646
2023-04-02T02:12:00.735Z,77.7831
2023-04-02T02:13:08.870Z,77.4845
2023-04-02T02:14:16.819Z,76.9973
2023-04-02T02:15:24.800Z,76.9226
2023-04-02T02:16:32.969Z,77.1520
2023-04-02T02:17:41.036Z,77.3246
2023-04-02T02:18:49.187Z,77.7925
2023-04-02T02:19:57.204Z,77.8459
2023-04-02T02:21:05.241Z,77.7579
2023-04-02T02:22:13.293Z,77.3508
2023-04-02T02:23:21.362Z,77.1058
2023-04-02T02:24:29.496Z,77.1565
2023-04-02T02:25:37.875Z,76.9721
2023-04-02T02:26:45.557Z,76.6902
2023-04-02T02:27:53.643Z,76.8476
2023-04-02T02:29:01.629Z,76.8696
2023-04-02T02:30:09.723Z,77.0330
2023-04-02T02:31:17.907Z,77.0991
2023-04-02T02:32:25.902Z,77.0050
2023-04-02T02:33:33.947Z,77.1593
2023-04-02T02:34:41.998Z,77.2021
2023-04-02T02:35:50.187Z,77.5377
2023-04-02T02:36:58.208Z,77.6903
2023-04-02T02:38:06.220Z,77.9097
2023-04-02T02:39:14.254Z,77.9805
2023-04-02T02:40:22.334Z,78.1928
2023-04-02T02:41:30.444Z,78.4812
2023-04-02T02:42:38.556Z,78.4605
2023-04-02T02:43:46.429Z,78.3023
2023-04-02T02:44:54.504Z,78.2306
2023-04-02T02:46:02.604Z,78.2657
2023-04-02T02:47:10.676Z,78.2757
2023-04-02T02:48:18.846Z,78.2654
2023-04-02T02:49:26.836Z,78.3295
2023-04-02T02:50:34.908Z,78.2447
2023-04-02T02:51:42.973Z,78.2537
2023-04-02T02:52:51.070Z,78.1622
2023-04-02T02:53:59.155Z,77.8501
2023-04-02T02:55:07.228Z,77.8834
2023-04-02T02:56:15.210Z,77.7554
2023-04-02T02:57:23.401Z,77.6362
2023-04-02T02:58:31.317Z,77.8688
2023-04-02T02:59:39.383Z,77.7422
2023-04-02T03:00:47.468Z,77.8420
2023-04-02T03:01:55.492Z,77.4975
2023-04-02T03:03:03.764Z,77.7732
2023-04-02T03:04:11.757Z,77.5707
2023-04-02T03:05:19.833Z,77.1066
2023-04-02T03:06:27.891Z,76.9803
2023-04-02T03:07:35.904Z,76.9514
2023-04-02T03:08:44.003Z,77.1987
2023-04-02T03:09:52.017Z,77.0317
2023-04-02T03:11:00.144Z,77.0525
2023-04-02T03:12:08.196Z,77.4213
2023-04-02T03:13:16.152Z,77.3458
2023-04-02T03:14:24.196Z,77.1805
2023-04-02T03:15:32.300Z,77.3278
2023-04-02T03:16:40.350Z,77.6816
2023-04-02T03:17:48.446Z,77.4680
2023-04-02T03:18:56.555Z,77.4095
2023-04-02T03:20:04.697Z,76.8788
2023-04-02T03:21:12.674Z,76.6018
2023-04-02T03:22:20.809Z,76.6139
2023-04-02T03:23:28.860Z,76.7516
2023-04-02T03:24:36.917Z,76.8353
2023-04-02T03:25:44.968Z,76.6314
2023-04-02T03:26:53.036Z,76.6839
2023-04-02T03:28:01.198Z,76.7310
2023-04-02T03:29:09.182Z,76.6591
2023-04-02T03:30:17.155Z,76.4754
2023-04-02T03:31:25.278Z,76.5856
2023-04-02T03:32:33.379Z,76.8314
2023-04-02T03:33:41.509Z,76.9386
2023-04-02T03:34:49.592Z,77.0014
2023-04-02T03:35:57.630Z,77.1000
2023-04-02T03:37:05.739Z,77.0475
2023-04-02T03:38:13.715Z,77.0426
2023-04-02T03:39:21.869Z,76.9694
2023-04-02T03:40:29.922Z,77.1193
2023-04-02T03:41:37.934Z,77.0131
2023-04-02T03:42:46.112Z,76.7916
2023-04-02T03:43:53.991Z,76.8597
2023-04-02T03:45:02.078Z,76.9356
2023-04-02T03:46:10.163Z,76.5683
2023-04-02T03:47:18.202Z,76.5193
2023-04-02T03:48:26.404Z,76.3162
2023-04-02T03:49:34.476Z,76.4227
2023-04-02T03:50:42.500Z,76.3858
2023-04-02T03:51:50.529Z,76.2686
2023-04-02T03:52:58.697Z,76.3203
2023-04-02T03:54:06.619Z,76.5733
2023-04-02T03:55:14.730Z,76.7185
2023-04-02T03:56:22.770Z,76.5036
2023-04-02T03:57:31.018Z,76.6166
2023-04-02T03:58:38.826Z,76.5212
2023-04-02T03:59:47.347Z,76.5409
2023-04-02T04:00:54.964Z,76.4252
2023-04-02T04:02:03.004Z,76.4586
2023-04-02T04:03:11.327Z,76.5821
2023-04-02T04:04:19.317Z,76.5482
2023-04-02T04:05:27.214Z,76.7696
2023-04-02T04:06:35.313Z,76.9054
2023-04-02T04:07:43.476Z,76.8531
2023-04-02T04:08:51.514Z,76.7824
2023-04-02T04:09:59.593Z,77.0088
2023-04-02T04:11:07.612Z,76.6670
2023-04-02T04:12:15.715Z,76.2348
2023-04-02T04:13:23.717Z,76.2190
2023-04-02T04:14:31.867Z,76.6429
2023-04-02T04:15:39.918Z,76.6910
2023-04-02T04:16:47.969Z,76.4748
2023-04-02T04:17:55.941Z,76.4038
2023-04-02T04:19:03.980Z,76.2629
2023-04-02T04:20:12.074Z,75.9673
2023-04-02T04:21:20.140Z,76.2120
2023-04-02T04:22:28.213Z,76.1411
2023-04-02T04:23:36.270Z,75.8757
2023-04-02T04:24:44.373Z,75.7003
2023-04-02T04:25:52.473Z,75.6185
2023-04-02T04:27:00.549Z,75.4514
2023-04-02T04:28:08.633Z,75.3493
2023-04-02T04:29:16.600Z,75.3125
2023-04-02T04:30:24.670Z,75.6378
2023-04-02T04:31:32.809Z,75.3945
2023-04-02T04:32:40.821Z,75.1037
2023-04-02T04:33:48.776Z,75.1713
2023-04-02T04:34:56.874Z,74.9512
2023-04-02T04:36:04.925Z,75.0618
2023-04-02T04:37:13.116Z,75.0099
2023-04-02T04:38:21.190Z,75.0204
2023-04-02T04:39:29.272Z,75.0257
2023-04-02T04:40:37.234Z,75.5415
2023-04-02T04:41:45.308Z,75.5544
2023-04-02T04:42:53.448Z,75.3239
2023-04-02T04:44:01.474Z,75.1559
2023-04-02T04:45:09.509Z,74.8734
2023-04-02T04:46:17.606Z,74.8532
2023-04-02T04:47:25.545Z,74.9151
2023-04-02T04:48:35.221Z,74.7896
2023-04-02T04:49:46.576Z,74.5188
2023-04-02T04:50:54.694Z,74.7034
2023-04-02T04:52:02.748Z,74.1937
2023-04-02T04:53:10.817Z,73.9063
2023-04-02T04:54:18.897Z,74.2023
2023-04-02T04:55:27.046Z,74.3589
2023-04-02T04:56:34.995Z,74.2629
2023-04-02T04:57:43.061Z,74.2476
2023-04-02T04:58:51.100Z,74.3261
2023-04-02T04:59:59.256Z,74.3155
2023-04-02T05:01:07.247Z,74.1453
2023-04-02T05:02:15.275Z,73.6490
2023-04-02T05:03:23.266Z,73.7717
2023-04-02T05:04:31.425Z,73.8538
2023-04-02T05:05:39.588Z,73.6663
2023-04-02T05:06:47.652Z,74.0558
2023-04-02T05:07:57.006Z,74.1515
2023-04-02T05:09:08.633Z,74.1849
2023-04-02T05:10:16.676Z,74.0330
2023-04-02T05:11:24.772Z,74.3768
2023-04-02T05:12:32.794Z,74.4477
2023-04-02T05:13:40.826Z,74.2668
2023-04-02T05:14:48.777Z,74.1138
2023-04-02T05:15:56.959Z,74.5402
2023-04-02T05:17:04.922Z,74.5664
2023-04-02T05:18:13.068Z,74.4448
2023-04-02T05:19:21.133Z,74.6716
2023-04-02T05:20:29.229Z,74.8259
2023-04-02T05:21:37.263Z,75.1710
2023-04-02T05:22:45.444Z,75.3233
2023-04-02T05:23:53.432Z,75.0751
2023-04-02T05:25:01.513Z,75.1965
2023-04-02T05:26:09.523Z,74.7906
2023-04-02T05:27:17.652Z,74.4599
2023-04-02T05:28:25.701Z,74.4735
2023-04-02T05:29:33.686Z,74.8263
2023-04-02T05:30:41.712Z,75.4315
2023-04-02T05:31:49.814Z,75.2102
2023-04-02T05:32:57.859Z,75.4620
2023-04-02T05:34:06.075Z,75.2692
2023-04-02T05:35:14.107Z,75.0603
2023-04-02T05:36:22.161Z,74.8360
2023-04-02T05:37:30.174Z,74.7329
2023-04-02T05:38:38.261Z,74.9212
2023-04-02T05:39:46.352Z,74.6422
2023-04-02T05:40:54.436Z,74.5106
2023-04-02T05:42:02.505Z,74.2508
2023-04-02T05:43:10.553Z,74.3221
2023-04-02T05:44:18.519Z,74.4343
2023-04-02T05:45:26.613Z,74.2048
2023-04-02T05:46:34.725Z,73.4829
2023-04-02T05:47:42.742Z,73.6917
2023-04-02T05:48:50.916Z,73.7623
2023-04-02T05:49:58.937Z,73.6481
2023-04-02T05:51:07.040Z,73.2742
2023-04-02T05:52:15.116Z,73.3237
2023-04-02T05:53:23.117Z,73.4299
2023-04-02T05:54:31.201Z,73.0989
2023-04-02T05:55:39.232Z,73.0864
2023-04-02T05:56:47.419Z,73.1537
2023-04-02T05:58:10.446Z,73.1881
2023-04-02T05:59:08.214Z,73.3193
2023-04-02T06:00:16.265Z,73.2446
2023-04-02T06:01:24.357Z,73.0609
2023-04-02T06:02:32.543Z,73.3158
2023-04-02T06:03:40.725Z,73.3536
2023-04-02T06:04:48.659Z,73.2725
2023-04-02T06:05:56.725Z,72.7720
2023-04-02T06:07:04.815Z,72.6007
2023-04-02T06:08:12.908Z,72.1504
2023-04-02T06:09:20.970Z,71.5175
2023-04-02T06:10:29.058Z,71.3476
2023-04-02T06:11:37.042Z,71.5646
2023-04-02T06:12:45.159Z,71.9367
2023-04-02T06:13:53.115Z,71.6338
2023-04-02T06:15:01.240Z,71.8978
2023-04-02T06:16:09.236Z,72.0018
2023-04-02T06:17:17.310Z,71.7855
2023-04-02T06:18:25.405Z,71.2984
2023-04-02T06:19:33.543Z,70.8875
2023-04-02T06:20:41.594Z,70.5840
2023-04-02T06:21:49.594Z,70.8330
2023-04-02T06:22:57.754Z,71.1266
2023-04-02T06:24:05.761Z,71.1577
2023-04-02T06:25:13.874Z,71.1997
2023-04-02T06:26:21.953Z,70.4064
2023-04-02T06:27:29.979Z,70.2177
2023-04-02T06:28:37.930Z,70.2446
2023-04-02T06:29:46.002Z,70.3355
2023-04-02T06:30:54.098Z,70.8751
2023-04-02T06:32:02.182Z,70.8643
2023-04-02T06:33:10.239Z,70.9473
2023-04-02T06:34:18.332Z,70.7242
2023-04-02T06:35:26.433Z,70.7818
2023-04-02T06:36:34.596Z,70.3979
2023-04-02T06:37:42.564Z,70.4427
2023-04-02T06:38:50.563Z,70.3752
2023-04-02T06:39:58.657Z,70.1088
2023-04-02T06:41:06.718Z,70.1467
2023-04-02T06:42:14.849Z,70.3589
2023-04-02T06:43:22.841Z,70.3465
2023-04-02T06:44:30.825Z,70.5455
2023-04-02T06:45:38.869Z,70.7958
2023-04-02T06:46:46.967Z,70.7027
2023-04-02T06:47:55.163Z,70.7309
2023-04-02T06:49:03.212Z,70.6668
2023-04-02T06:50:11.256Z,70.7173
2023-04-02T06:51:19.413Z,70.9435
2023-04-02T06:52:27.447Z,71.0977
2023-04-02T06:53:35.501Z,70.5906
2023-04-02T06:54:43.659Z,70.5910
2023-04-02T06:55:51.514Z,70.8221
2023-04-02T06:56:59.644Z,70.9152
2023-04-02T06:58:07.559Z,71.1517
2023-04-02T06:59:15.697Z,70.9013
2023-04-02T07:00:23.757Z,70.7188
2023-04-02T07:01:31.852Z,70.9135
2023-04-02T07:02:39.923Z,70.8276
2023-04-02T07:03:47.929Z,70.5929
2023-04-02T07:04:56.173Z,70.6357
2023-04-02T07:06:04.247Z,70.6328
2023-04-02T07:07:12.192Z,70.9778
2023-04-02T07:08:20.281Z,70.8886
2023-04-02T07:09:28.371Z,70.8883
2023-04-02T07:10:36.443Z,70.8006
2023-04-02T07:11:44.539Z,70.5884
2023-04-02T07:12:52.553Z,70.6128
2023-04-02T07:14:00.660Z,70.6377
2023-04-02T07:15:08.577Z,70.3944
2023-04-02T07:16:16.777Z,70.2161
2023-04-02T07:17:24.775Z,70.4942
2023-04-02T07:18:32.809Z,69.9963
2023-04-02T07:19:40.937Z,69.4799
2023-04-02T07:20:49.007Z,69.1277
2023-04-02T07:21:57.069Z,69.1157
2023-04-02T07:23:05.227Z,69.4080
2023-04-02T07:24:13.276Z,69.1518
2023-04-02T07:25:21.436Z,68.9784
2023-04-02T07:26:29.367Z,68.9220
2023-04-02T07:27:37.522Z,69.1734
2023-04-02T07:28:45.521Z,69.2242
2023-04-02T07:29:53.489Z,68.3804
2023-04-02T07:31:01.496Z,68.6408
2023-04-02T07:32:09.613Z,68.3868
2023-04-02T07:33:17.671Z,67.8642
2023-04-02T07:34:25.815Z,67.8261
2023-04-02T07:35:34.307Z,67.6699
2023-04-02T07:36:41.990Z,68.3107
2023-04-02T07:37:50.057Z,68.2177
2023-04-02T07:38:58.157Z,68.1087
2023-04-02T07:40:06.203Z,67.2822
2023-04-02T07:41:14.273Z,67.6292
2023-04-02T07:42:22.313Z,67.2741
2023-04-02T07:43:30.503Z,67.6882
2023-04-02T07:44:38.519Z,68.0161
2023-04-02T07:45:46.600Z,67.8564
2023-04-02T07:46:54.510Z,68.0216
2023-04-02T07:48:02.602Z,67.6769
2023-04-02T07:49:10.600Z,67.0393
2023-04-02T07:50:18.752Z,66.6064
2023-04-02T07:51:26.858Z,66.6697
2023-04-02T07:52:34.924Z,67.1205
2023-04-02T07:53:42.958Z,67.4179
2023-04-02T07:54:51.115Z,67.5846
2023-04-02T07:55:59.151Z,67.3915
2023-04-02T07:57:07.301Z,67.7248
2023-04-02T07:58:15.220Z,67.6037
2023-04-02T07:59:23.313Z,66.5085
2023-04-02T08:00:31.385Z,66.4865
2023-04-02T08:01:39.406Z,65.8210
2023-04-02T08:02:47.450Z,65.6761
2023-04-02T08:03:55.522Z,66.5061
2023-04-02T08:05:03.531Z,66.2834
2023-04-02T08:06:11.720Z,66.3266
2023-04-02T08:07:19.796Z,65.8375
2023-04-02T08:08:27.926Z,66.0078
2023-04-02T08:09:35.908Z,66.2659
2023-04-02T08:10:43.956Z,65.9445
2023-04-02T08:11:52.040Z,65.9259
2023-04-02T08:13:00.237Z,66.2244
2023-04-02T08:14:08.173Z,65.9349
2023-04-02T08:15:16.222Z,66.7026
2023-04-02T08:16:24.264Z,66.7137
2023-04-02T08:17:32.355Z,67.2333
2023-04-02T08:18:40.373Z,67.1524
2023-04-02T08:19:54.786Z,66.7802
2023-04-02T08:21:01.387Z,66.9934
2023-04-02T08:22:09.477Z,66.1695
2023-04-02T08:23:17.554Z,66.0178
2023-04-02T08:24:25.645Z,66.8831
2023-04-02T08:25:33.920Z,66.5097
2023-04-02T08:26:43.033Z,66.7839
2023-04-02T08:27:54.649Z,67.5676
2023-04-02T08:29:02.763Z,67.6329
2023-04-02T08:30:10.695Z,67.6325
2023-04-02T08:31:18.877Z,68.2833
2023-04-02T08:32:26.851Z,68.4602
2023-04-02T08:33:35.038Z,68.2995
2023-04-02T08:34:43.106Z,68.7052
2023-04-02T08:35:51.236Z,68.5430
2023-04-02T08:36:59.283Z,69.0744
2023-04-02T08:38:07.239Z,69.4372
2023-04-02T08:39:15.304Z,68.9426
2023-04-02T08:40:23.402Z,68.2894
2023-04-02T08:41:31.481Z,67.8748
2023-04-02T08:42:39.510Z,67.1926
2023-04-02T08:43:47.493Z,67.5780
2023-04-02T08:44:55.500Z,68.1008
2023-04-02T08:46:03.582Z,68.7741
2023-04-02T08:47:11.666Z,68.6762
2023-04-02T08:48:19.748Z,68.5799
2023-04-02T08:49:27.793Z,68.1722
2023-04-02T08:50:35.857Z,67.5064
2023-04-02T08:51:44.008Z,66.5361
2023-04-02T08:52:52.079Z,66.6377
2023-04-02T08:54:00.163Z,66.8503
2023-04-02T08:55:08.279Z,66.6646
2023-04-02T08:56:16.218Z,66.0752
2023-04-02T08:57:24.347Z,65.6156
2023-04-02T08:58:32.360Z,65.5140
2023-04-02T08:59:40.529Z,65.2155
2023-04-02T09:00:48.593Z,64.4056
2023-04-02T09:01:56.508Z,63.7903
2023-04-02T09:03:04.542Z,63.6870
2023-04-02T09:04:12.688Z,63.7714
2023-04-02T09:05:20.681Z,64.2162
2023-04-02T09:06:28.876Z,63.9408
2023-04-02T09:07:36.836Z,63.8923
2023-04-02T09:08:44.944Z,63.8804
2023-04-02T09:09:52.970Z,64.4421
2023-04-02T09:11:01.097Z,64.7325
2023-04-02T09:12:09.198Z,65.0608
2023-04-02T09:13:17.177Z,64.7763
2023-04-02T09:14:25.252Z,64.7875
2023-04-02T09:15:33.584Z,64.9980
2023-04-02T09:16:41.288Z,66.2437
2023-04-02T09:17:54.025Z,66.7948
2023-04-02T09:19:02.237Z,67.0210
2023-04-02T09:20:10.474Z,66.8280
2023-04-02T09:21:18.474Z,66.0916
2023-04-02T09:22:26.595Z,65.9531
2023-04-02T09:23:34.679Z,65.2563
2023-04-02T09:24:42.688Z,64.4942
2023-04-02T09:26:03.025Z,63.8505
2023-04-02T09:27:03.690Z,63.7948
2023-04-02T09:28:11.800Z,64.7982
2023-04-02T09:29:19.701Z,64.8620
2023-04-02T09:30:27.744Z,63.7529
2023-04-02T09:31:35.861Z,62.5950
2023-04-02T09:32:43.894Z,63.0186
2023-04-02T09:33:52.087Z,63.4622
2023-04-02T09:35:00.161Z,63.2192
2023-04-02T09:36:08.225Z,63.5874
2023-04-02T09:37:16.204Z,63.4265
2023-04-02T09:38:24.358Z,62.9760
2023-04-02T09:39:32.444Z,63.9679
2023-04-02T09:40:40.480Z,63.2140
2023-04-02T09:42:02.405Z,62.5021
2023-04-02T09:43:01.361Z,63.6867
2023-04-02T09:44:09.417Z,64.4620
2023-04-02T09:45:17.505Z,64.4402
2023-04-02T09:46:25.547Z,63.2411
2023-04-02T09:47:33.766Z,62.9816
2023-04-02T09:48:41.725Z,63.1556
2023-04-02T09:49:49.806Z,63.2553
2023-04-02T09:50:57.943Z,62.9981
2023-04-02T09:52:05.969Z,62.4348
2023-04-02T09:53:14.019Z,62.3327
2023-04-02T09:54:22.106Z,62.2018
2023-04-02T09:55:30.100Z,61.3355
2023-04-02T09:56:38.249Z,61.8387
2023-04-02T09:57:46.138Z,61.2083
2023-04-02T09:58:54.217Z,61.0566
2023-04-02T10:00:02.278Z,61.6075
2023-04-02T10:01:10.373Z,61.3706
2023-04-02T10:02:18.530Z,61.6127
2023-04-02T10:03:26.654Z,62.1064
2023-04-02T10:04:34.613Z,60.7404
2023-04-02T10:05:43.085Z,60.6339
2023-04-02T10:06:50.714Z,61.0328
2023-04-02T10:07:58.840Z,60.4462
2023-04-02T10:09:06.977Z,60.5394
2023-04-02T10:10:14.914Z,60.6791
2023-04-02T10:11:23.448Z,61.1586
2023-04-02T10:12:35.874Z,61.1957
2023-04-02T10:13:43.901Z,61.3380
2023-04-02T10:14:52.006Z,60.7319
2023-04-02T10:16:00.053Z,60.7140
2023-04-02T10:17:08.265Z,60.7397
2023-04-02T10:18:16.231Z,59.8998
2023-04-02T10:19:24.381Z,60.6994
2023-04-02T10:20:36.345Z,60.9489
2023-04-02T10:21:45.318Z,60.4763
2023-04-02T10:22:53.329Z,60.4359
2023-04-02T10:24:01.390Z,61.4016
2023-04-02T10:25:09.484Z,61.2705
2023-04-02T10:26:17.495Z,60.9432
2023-04-02T10:27:25.490Z,61.1952
2023-04-02T10:28:33.569Z,62.2454
2023-04-02T10:29:41.648Z,61.3816
2023-04-02T10:30:49.850Z,61.2779
2023-04-02T10:31:57.927Z,60.9550
2023-04-02T10:33:06.010Z,61.1787
2023-04-02T10:34:13.962Z,62.0468
2023-04-02T10:35:22.063Z,62.8555
2023-04-02T10:36:30.118Z,62.2947
2023-04-02T10:37:38.206Z,61.5706
2023-04-02T10:38:46.178Z,60.8571
2023-04-02T10:39:54.293Z,60.3061
2023-04-02T10:41:02.314Z,60.6642
2023-04-02T10:42:10.481Z,60.7877
2023-04-02T10:43:18.517Z,61.4329
2023-04-02T10:44:26.520Z,61.6639
2023-04-02T10:45:34.752Z,61.1954
2023-04-02T10:46:42.682Z,60.8100
2023-04-02T10:47:50.803Z,60.9604
2023-04-02T10:48:58.828Z,60.2525
2023-04-02T10:50:06.846Z,59.4527
2023-04-02T10:51:14.829Z,60.1680
2023-04-02T10:52:22.856Z,60.3375
2023-04-02T10:53:30.987Z,60.3649
2023-04-02T10:54:39.046Z,59.8320
2023-04-02T10:55:47.199Z,59.7986
2023-04-02T10:56:55.244Z,60.1945
2023-04-02T10:58:03.324Z,59.1050
2023-04-02T10:59:11.402Z,57.5797
2023-04-02T11:00:19.509Z,57.6358
2023-04-02T11:01:27.565Z,57.2974
2023-04-02T11:02:35.621Z,58.9624
2023-04-02T11:03:43.791Z,59.6081
2023-04-02T11:04:51.649Z,59.6308
2023-04-02T11:05:59.678Z,59.8293
2023-04-02T11:07:14.418Z,59.0950
2023-04-02T11:08:20.710Z,58.7285
2023-04-02T11:09:28.806Z,58.7011
2023-04-02T11:10:36.918Z,58.9789
2023-04-02T11:11:45.071Z,58.9969
2023-04-02T11:12:53.004Z,59.5540
2023-04-02T11:14:01.076Z,60.0958
2023-04-02T11:15:09.155Z,60.2260
2023-04-02T11:16:17.305Z,60.3717
2023-04-02T11:17:25.333Z,59.2203
2023-04-02T11:18:33.275Z,58.6311
2023-04-02T11:19:41.308Z,59.8672
2023-04-02T11:20:49.346Z,58.6694
2023-04-02T11:21:59.354Z,58.6176
2023-04-02T11:23:10.560Z,58.0338
2023-04-02T11:24:18.478Z,58.0108
2023-04-02T11:25:26.609Z,57.8453
2023-04-02T11:26:34.596Z,57.1242
2023-04-02T11:27:42.737Z,57.1943
2023-04-02T11:28:50.813Z,57.2028
2023-04-02T11:29:58.874Z,56.8121
2023-04-02T11:31:06.898Z,56.4093
2023-04-02T11:32:14.866Z,56.0320
2023-04-02T11:33:34.138Z,56.6598
2023-04-02T11:34:35.894Z,57.8889
2023-04-02T11:35:44.029Z,56.9075
2023-04-02T11:36:52.122Z,57.0226
2023-04-02T11:38:00.171Z,56.6267
2023-04-02T11:39:17.079Z,55.5737
2023-04-02T11:40:21.161Z,55.4665
2023-04-02T11:41:29.232Z,54.9467
2023-04-02T11:42:37.290Z,53.5102
2023-04-02T11:43:45.329Z,53.6627
2023-04-02T11:44:53.304Z,54.6454
2023-04-02T11:46:01.476Z,55.0843
2023-04-02T11:47:09.490Z,56.7093
2023-04-02T11:48:17.566Z,57.1880
2023-04-02T11:49:25.693Z,58.0657
2023-04-02T11:50:33.856Z,59.6655
2023-04-02T11:51:41.862Z,60.2158
2023-04-02T11:52:49.921Z,60.5116
2023-04-02T11:53:58.001Z,60.1835
2023-04-02T11:55:06.047Z,59.5032
2023-04-02T11:56:14.220Z,59.1789
2023-04-02T11:57:22.276Z,59.7380
2023-04-02T11:58:30.242Z,60.4693
2023-04-02T11:59:38.183Z,60.9436
2023-04-02T12:00:46.300Z,61.3869
2023-04-02T12:01:54.343Z,61.7444
2023-04-02T12:03:02.447Z,61.1535
2023-04-02T12:04:10.604Z,62.6513
2023-04-02T12:05:18.669Z,62.5151
2023-04-02T12:06:26.653Z,61.6531
2023-04-02T12:07:34.886Z,62.0979
2023-04-02T12:08:56.677Z,61.1122
2023-04-02T12:09:55.745Z,60.1730
2023-04-02T12:11:03.842Z,60.5370
2023-04-02T12:12:11.881Z,61.4902
2023-04-02T12:13:19.937Z,60.6421
2023-04-02T12:14:27.926Z,59.7428
2023-04-02T12:15:36.103Z,60.3026
2023-04-02T12:16:44.153Z,60.7245
2023-04-02T12:17:52.231Z,61.5807
2023-04-02T12:19:00.362Z,63.0341
2023-04-02T12:20:08.404Z,61.6652
2023-04-02T12:21:16.393Z,60.9783
2023-04-02T12:22:24.491Z,61.0385
2023-04-02T12:23:32.524Z,60.8832
2023-04-02T12:24:40.657Z,61.6285
2023-04-02T12:25:48.734Z,61.8434
2023-04-02T12:26:56.771Z,61.2346
2023-04-02T12:28:04.719Z,61.5581
2023-04-02T12:29:12.798Z,61.1756
2023-04-02T12:30:20.866Z,60.8998
2023-04-02T12:31:29.016Z,61.2661
2023-04-02T12:32:37.122Z,61.3713
2023-04-02T12:33:45.100Z,61.1196
2023-04-02T12:34:53.161Z,60.9253
2023-04-02T12:36:01.377Z,60.8809
2023-04-02T12:37:09.320Z,60.9031
2023-04-02T12:38:17.396Z,60.5782
2023-04-02T12:39:27.967Z,60.0861
2023-04-02T12:40:38.580Z,59.8901
2023-04-02T12:41:46.303Z,59.3340
2023-04-02T12:42:54.403Z,59.0552
2023-04-02T12:44:02.544Z,59.3321
2023-04-02T12:45:10.546Z,59.7307
2023-04-02T12:46:18.691Z,59.5300
2023-04-02T12:47:26.730Z,58.9291
2023-04-02T12:48:34.888Z,59.4621
2023-04-02T12:49:42.907Z,59.5783
2023-04-02T12:50:50.974Z,59.6797
2023-04-02T12:51:59.066Z,59.7104
2023-04-02T12:53:07.071Z,59.3482
2023-04-02T12:54:15.196Z,58.6951
2023-04-02T12:55:23.296Z,58.5308
2023-04-02T12:56:31.174Z,59.0232
2023-04-02T12:57:39.468Z,59.0152
2023-04-02T12:58:47.327Z,58.5095
2023-04-02T12:59:55.430Z,58.2226
2023-04-02T13:01:03.596Z,58.2637
2023-04-02T13:02:11.604Z,57.4405
2023-04-02T13:03:19.803Z,57.5094
2023-04-02T13:04:27.727Z,56.9705
2023-04-02T13:05:35.848Z,57.4580
2023-04-02T13:06:43.928Z,57.3058
2023-04-02T13:07:51.915Z,57.5969
2023-04-02T13:08:59.969Z,57.2263
2023-04-02T13:10:08.048Z,56.6920
2023-04-02T13:11:16.053Z,56.3416
2023-04-02T13:12:24.151Z,56.8026
2023-04-02T13:13:32.154Z,56.9189
2023-04-02T13:14:40.203Z,56.6655
2023-04-02T13:15:48.448Z,57.5056
2023-04-02T13:16:56.519Z,57.2412
2023-04-02T13:18:04.617Z,57.6730
2023-04-02T13:19:12.604Z,57.2124
2023-04-02T13:20:20.630Z,56.8140
2023-04-02T13:21:28.956Z,56.8532
2023-04-02T13:22:36.873Z,57.0675
2023-04-02T13:23:44.931Z,57.3601
2023-04-02T13:24:52.876Z,57.1208
2023-04-02T13:26:00.877Z,57.1542
2023-04-02T13:27:08.921Z,57.5547
2023-04-02T13:28:17.034Z,57.4183
2023-04-02T13:29:25.118Z,57.8105
2023-04-02T13:30:33.357Z,57.4688
2023-04-02T13:31:41.279Z,57.2430
2023-04-02T13:32:49.369Z,56.8298
2023-04-02T13:33:57.488Z,57.0975
2023-04-02T13:35:05.562Z,57.0902
2023-04-02T13:36:13.574Z,56.7591
2023-04-02T13:37:21.669Z,57.0417
2023-04-02T13:38:29.658Z,57.1339
2023-04-02T13:39:37.792Z,56.7114
2023-04-02T13:40:45.701Z,56.7225
2023-04-02T13:41:53.736Z,56.5979
2023-04-02T13:43:01.808Z,56.3650
2023-04-02T13:44:09.995Z,55.8444